sensor_id;sensor_type;location;lat;lon;timestamp;temperature;humidity
10662;DHT22;5379;51.034;7.006;2023-03-14T00:02:26;15.80;99.90
10662;DHT22;5379;51.034;7.006;2023-03-14T00:04:54;15.90;99.90
10662;DHT22;5379;51.034;7.006;2023-03-14T00:07:22;15.90;99.90
10662;DHT22;5379;51.034;7.006;2023-03-14T00:09:50;15.90;99.90
10662;DHT22;5379;51.034;7.006;2023-03-14T00:12:18;15.90;99.90
10662;DHT22;5379;51.034;7.006;2023-03-14T00:14:45;15.90;99.90
10662;DHT22;5379;51.034;7.006;2023-03-14T00:17:12;15.90;99.90
10662;DHT22;5379;51.034;7.006;2023-03-14T00:19:39;15.90;99.90
10662;DHT22;5379;51.034;7.006;2023-03-14T00:22:06;15.90;99.90
10662;DHT22;5379;51.034;7.006;2023-03-14T00:24:33;15.90;99.90
10662;DHT22;5379;51.034;7.006;2023-03-14T00:27:00;16.00;99.90
10662;DHT22;5379;51.034;7.006;2023-03-14T00:29:28;16.00;99.90
10662;DHT22;5379;51.034;7.006;2023-03-14T00:31:55;16.00;99.90
10662;DHT22;5379;51.034;7.006;2023-03-14T00:34:22;15.90;99.90
10662;DHT22;5379;51.034;7.006;2023-03-14T00:36:49;16.00;99.90
10662;DHT22;5379;51.034;7.006;2023-03-14T00:39:16;16.10;99.90
10662;DHT22;5379;51.034;7.006;2023-03-14T00:41:43;16.10;99.90
10662;DHT22;5379;51.034;7.006;2023-03-14T00:44:10;16.10;99.90
10662;DHT22;5379;51.034;7.006;2023-03-14T00:46:38;16.10;99.90
10662;DHT22;5379;51.034;7.006;2023-03-14T00:49:05;16.10;99.90
10662;DHT22;5379;51.034;7.006;2023-03-14T00:51:32;16.10;99.90
10662;DHT22;5379;51.034;7.006;2023-03-14T00:53:59;16.10;99.90
10662;DHT22;5379;51.034;7.006;2023-03-14T00:56:26;16.10;99.90
10662;DHT22;5379;51.034;7.006;2023-03-14T00:58:54;16.10;99.90
10662;DHT22;5379;51.034;7.006;2023-03-14T05:32:33;13.40;99.90
10662;DHT22;5379;51.034;7.006;2023-03-14T05:35:00;13.30;99.90
10662;DHT22;5379;51.034;7.006;2023-03-14T05:37:27;13.30;99.90
10662;DHT22;5379;51.034;7.006;2023-03-14T05:39:54;13.30;99.90
10662;DHT22;5379;51.034;7.006;2023-03-14T05:42:21;13.30;99.90
10662;DHT22;5379;51.034;7.006;2023-03-14T05:44:48;13.30;99.90
10662;DHT22;5379;51.034;7.006;2023-03-14T05:47:15;13.30;99.90
10662;DHT22;5379;51.034;7.006;2023-03-14T05:49:43;13.30;99.90
10662;DHT22;5379;51.034;7.006;2023-03-14T05:52:10;13.40;99.90
10662;DHT22;5379;51.034;7.006;2023-03-14T05:54:37;13.40;99.90
10662;DHT22;5379;51.034;7.006;2023-03-14T05:57:04;13.50;99.90
10662;DHT22;5379;51.034;7.006;2023-03-14T05:59:31;13.50;99.90
10662;DHT22;5379;51.034;7.006;2023-03-14T06:01:58;13.70;99.90
10662;DHT22;5379;51.034;7.006;2023-03-14T06:04:25;13.80;99.90
10662;DHT22;5379;51.034;7.006;2023-03-14T06:06:53;13.80;99.90
10662;DHT22;5379;51.034;7.006;2023-03-14T06:09:20;14.00;99.90
10662;DHT22;5379;51.034;7.006;2023-03-14T06:11:48;14.20;99.90
10662;DHT22;5379;51.034;7.006;2023-03-14T06:14:16;14.20;99.90
10662;DHT22;5379;51.034;7.006;2023-03-14T06:16:43;14.00;99.90
10662;DHT22;5379;51.034;7.006;2023-03-14T06:19:10;14.00;99.90
10662;DHT22;5379;51.034;7.006;2023-03-14T06:21:37;14.00;99.90
10662;DHT22;5379;51.034;7.006;2023-03-14T06:24:06;14.10;99.90
10662;DHT22;5379;51.034;7.006;2023-03-14T06:26:33;14.00;99.90
10662;DHT22;5379;51.034;7.006;2023-03-14T06:29:00;14.00;99.90
10662;DHT22;5379;51.034;7.006;2023-03-14T06:31:29;14.10;99.90
10662;DHT22;5379;51.034;7.006;2023-03-14T06:33:56;14.20;99.90
10662;DHT22;5379;51.034;7.006;2023-03-14T06:36:23;14.10;99.90
10662;DHT22;5379;51.034;7.006;2023-03-14T06:38:50;14.20;99.90
10662;DHT22;5379;51.034;7.006;2023-03-14T06:41:18;14.10;99.90
10662;DHT22;5379;51.034;7.006;2023-03-14T06:43:46;14.20;99.90
10662;DHT22;5379;51.034;7.006;2023-03-14T06:46:13;14.10;99.90
10662;DHT22;5379;51.034;7.006;2023-03-14T06:48:40;14.20;99.90
10662;DHT22;5379;51.034;7.006;2023-03-14T06:51:07;14.10;99.90
10662;DHT22;5379;51.034;7.006;2023-03-14T06:53:34;14.00;99.90
10662;DHT22;5379;51.034;7.006;2023-03-14T06:56:01;13.90;99.90
10662;DHT22;5379;51.034;7.006;2023-03-14T06:58:30;14.00;99.90
10662;DHT22;5379;51.034;7.006;2023-03-14T07:00:57;14.10;99.90
10662;DHT22;5379;51.034;7.006;2023-03-14T07:03:24;14.10;99.90
10662;DHT22;5379;51.034;7.006;2023-03-14T07:05:51;14.30;99.90
10662;DHT22;5379;51.034;7.006;2023-03-14T07:08:19;14.40;99.90
10662;DHT22;5379;51.034;7.006;2023-03-14T07:10:46;14.40;99.90
10662;DHT22;5379;51.034;7.006;2023-03-14T07:13:13;14.40;99.90
10662;DHT22;5379;51.034;7.006;2023-03-14T07:15:41;14.50;99.90
10662;DHT22;5379;51.034;7.006;2023-03-14T07:18:08;14.60;99.90
10662;DHT22;5379;51.034;7.006;2023-03-14T07:20:35;14.80;99.90
10662;DHT22;5379;51.034;7.006;2023-03-14T07:23:02;15.00;99.90
10662;DHT22;5379;51.034;7.006;2023-03-14T07:25:29;15.00;99.90
10662;DHT22;5379;51.034;7.006;2023-03-14T07:27:56;14.90;99.90
10662;DHT22;5379;51.034;7.006;2023-03-14T07:30:23;14.70;99.90
10662;DHT22;5379;51.034;7.006;2023-03-14T07:32:51;14.70;99.90
10662;DHT22;5379;51.034;7.006;2023-03-14T07:35:18;14.70;99.90
10662;DHT22;5379;51.034;7.006;2023-03-14T07:37:45;14.90;99.90
10662;DHT22;5379;51.034;7.006;2023-03-14T07:40:13;15.20;99.90
10662;DHT22;5379;51.034;7.006;2023-03-14T07:42:41;15.20;99.90
10662;DHT22;5379;51.034;7.006;2023-03-14T07:45:09;15.20;99.90
10662;DHT22;5379;51.034;7.006;2023-03-14T07:47:36;15.20;99.90
10662;DHT22;5379;51.034;7.006;2023-03-14T07:50:06;15.20;99.90
10662;DHT22;5379;51.034;7.006;2023-03-14T07:52:33;15.20;99.90
10662;DHT22;5379;51.034;7.006;2023-03-14T07:55:00;15.20;99.90
10662;DHT22;5379;51.034;7.006;2023-03-14T07:57:27;15.20;99.90
10662;DHT22;5379;51.034;7.006;2023-03-14T07:59:54;15.30;99.90
10662;DHT22;5379;51.034;7.006;2023-03-14T08:02:21;15.20;99.90
10662;DHT22;5379;51.034;7.006;2023-03-14T08:04:49;15.10;99.90
10662;DHT22;5379;51.034;7.006;2023-03-14T08:07:17;15.00;99.90
10662;DHT22;5379;51.034;7.006;2023-03-14T08:09:44;15.00;99.90
10662;DHT22;5379;51.034;7.006;2023-03-14T08:12:11;15.10;99.90
10662;DHT22;5379;51.034;7.006;2023-03-14T08:14:38;15.10;99.90
10662;DHT22;5379;51.034;7.006;2023-03-14T08:17:05;15.10;99.90
10662;DHT22;5379;51.034;7.006;2023-03-14T08:19:33;15.20;99.90
10662;DHT22;5379;51.034;7.006;2023-03-14T08:22:00;15.20;99.90
10662;DHT22;5379;51.034;7.006;2023-03-14T08:24:29;15.20;99.90
10662;DHT22;5379;51.034;7.006;2023-03-14T08:26:56;15.30;99.90
10662;DHT22;5379;51.034;7.006;2023-03-14T08:29:23;15.30;99.90
10662;DHT22;5379;51.034;7.006;2023-03-14T08:31:50;15.50;99.90
10662;DHT22;5379;51.034;7.006;2023-03-14T08:34:17;15.40;99.90
10662;DHT22;5379;51.034;7.006;2023-03-14T08:36:45;15.20;99.90
10662;DHT22;5379;51.034;7.006;2023-03-14T08:39:11;15.30;99.90
10662;DHT22;5379;51.034;7.006;2023-03-14T08:41:40;15.20;99.90
10662;DHT22;5379;51.034;7.006;2023-03-14T08:44:08;15.30;99.90
10662;DHT22;5379;51.034;7.006;2023-03-14T08:46:37;15.40;99.90
10662;DHT22;5379;51.034;7.006;2023-03-14T08:49:04;15.50;99.90
10662;DHT22;5379;51.034;7.006;2023-03-14T08:51:31;15.60;99.90
10662;DHT22;5379;51.034;7.006;2023-03-14T08:53:58;15.80;99.90
10662;DHT22;5379;51.034;7.006;2023-03-14T08:56:33;16.00;99.90
10662;DHT22;5379;51.034;7.006;2023-03-14T08:59:04;16.10;99.90
10662;DHT22;5379;51.034;7.006;2023-03-14T09:01:32;15.90;99.90
10662;DHT22;5379;51.034;7.006;2023-03-14T09:03:59;16.00;99.90
10662;DHT22;5379;51.034;7.006;2023-03-14T09:06:26;15.90;99.90
10662;DHT22;5379;51.034;7.006;2023-03-14T09:08:53;15.70;99.90
10662;DHT22;5379;51.034;7.006;2023-03-14T09:11:19;15.70;99.90
10662;DHT22;5379;51.034;7.006;2023-03-14T09:13:46;15.70;99.90
10662;DHT22;5379;51.034;7.006;2023-03-14T09:16:15;15.80;99.90
10662;DHT22;5379;51.034;7.006;2023-03-14T09:18:42;15.90;99.90
10662;DHT22;5379;51.034;7.006;2023-03-14T09:21:09;15.80;99.90
10662;DHT22;5379;51.034;7.006;2023-03-14T09:23:36;15.70;99.90
10662;DHT22;5379;51.034;7.006;2023-03-14T09:26:03;15.80;99.90
10662;DHT22;5379;51.034;7.006;2023-03-14T09:28:30;16.00;99.90
10662;DHT22;5379;51.034;7.006;2023-03-14T09:30:57;16.00;99.90
10662;DHT22;5379;51.034;7.006;2023-03-14T09:33:25;16.30;99.90
10662;DHT22;5379;51.034;7.006;2023-03-14T09:35:53;16.20;99.90
10662;DHT22;5379;51.034;7.006;2023-03-14T09:38:19;16.20;99.90
10662;DHT22;5379;51.034;7.006;2023-03-14T09:40:47;16.20;99.90
10662;DHT22;5379;51.034;7.006;2023-03-14T09:43:15;16.20;99.90
10662;DHT22;5379;51.034;7.006;2023-03-14T09:45:44;16.60;99.90
10662;DHT22;5379;51.034;7.006;2023-03-14T09:48:16;17.00;99.90
10662;DHT22;5379;51.034;7.006;2023-03-14T09:50:48;17.40;99.90
10662;DHT22;5379;51.034;7.006;2023-03-14T09:53:18;16.10;99.90
10662;DHT22;5379;51.034;7.006;2023-03-14T09:55:47;16.50;99.90
10662;DHT22;5379;51.034;7.006;2023-03-14T09:58:19;16.50;99.90
10662;DHT22;5379;51.034;7.006;2023-03-14T10:00:46;16.20;99.90
10662;DHT22;5379;51.034;7.006;2023-03-14T10:03:22;16.20;99.90
10662;DHT22;5379;51.034;7.006;2023-03-14T10:05:52;15.60;99.90
10662;DHT22;5379;51.034;7.006;2023-03-14T10:08:20;15.10;99.90
10662;DHT22;5379;51.034;7.006;2023-03-14T10:10:47;14.40;99.90
10662;DHT22;5379;51.034;7.006;2023-03-14T10:13:16;14.10;99.90
10662;DHT22;5379;51.034;7.006;2023-03-14T10:15:50;14.10;99.90
10662;DHT22;5379;51.034;7.006;2023-03-14T10:18:18;13.80;99.90
10662;DHT22;5379;51.034;7.006;2023-03-14T10:20:46;14.20;99.90
10662;DHT22;5379;51.034;7.006;2023-03-14T10:23:24;14.40;99.90
10662;DHT22;5379;51.034;7.006;2023-03-14T10:26:07;14.50;99.90
10662;DHT22;5379;51.034;7.006;2023-03-14T10:28:38;15.00;99.90
10662;DHT22;5379;51.034;7.006;2023-03-14T10:31:06;15.60;99.90
10662;DHT22;5379;51.034;7.006;2023-03-14T10:33:35;15.80;99.90
10662;DHT22;5379;51.034;7.006;2023-03-14T10:36:05;15.60;99.90
10662;DHT22;5379;51.034;7.006;2023-03-14T10:38:36;15.30;99.90
10662;DHT22;5379;51.034;7.006;2023-03-14T10:41:18;15.40;99.90
10662;DHT22;5379;51.034;7.006;2023-03-14T10:43:50;15.10;99.90
10662;DHT22;5379;51.034;7.006;2023-03-14T10:46:19;14.50;99.90
10662;DHT22;5379;51.034;7.006;2023-03-14T10:48:46;14.80;99.90
10662;DHT22;5379;51.034;7.006;2023-03-14T10:51:19;14.40;99.90
10662;DHT22;5379;51.034;7.006;2023-03-14T10:53:49;15.00;99.90
10662;DHT22;5379;51.034;7.006;2023-03-14T10:56:19;14.90;99.90
10662;DHT22;5379;51.034;7.006;2023-03-14T10:58:48;16.00;99.90
10662;DHT22;5379;51.034;7.006;2023-03-14T11:01:32;16.40;99.90
10662;DHT22;5379;51.034;7.006;2023-03-14T11:04:09;15.70;99.90
10662;DHT22;5379;51.034;7.006;2023-03-14T11:06:43;15.10;99.90
10662;DHT22;5379;51.034;7.006;2023-03-14T11:09:18;14.60;99.90
10662;DHT22;5379;51.034;7.006;2023-03-14T11:11:48;14.50;99.90
10662;DHT22;5379;51.034;7.006;2023-03-14T11:14:21;14.40;99.90
10662;DHT22;5379;51.034;7.006;2023-03-14T11:16:57;15.20;99.90
10662;DHT22;5379;51.034;7.006;2023-03-14T11:19:42;15.30;99.90
10662;DHT22;5379;51.034;7.006;2023-03-14T11:22:20;15.30;99.90
10662;DHT22;5379;51.034;7.006;2023-03-14T11:25:00;15.80;99.90
10662;DHT22;5379;51.034;7.006;2023-03-14T11:27:36;16.10;99.90
10662;DHT22;5379;51.034;7.006;2023-03-14T11:30:17;15.70;99.90
10662;DHT22;5379;51.034;7.006;2023-03-14T11:32:46;15.90;99.90
10662;DHT22;5379;51.034;7.006;2023-03-14T11:35:22;15.00;99.90
10662;DHT22;5379;51.034;7.006;2023-03-14T11:37:54;14.10;99.90
10662;DHT22;5379;51.034;7.006;2023-03-14T11:40:26;13.30;99.90
10662;DHT22;5379;51.034;7.006;2023-03-14T11:42:59;12.80;99.90
10662;DHT22;5379;51.034;7.006;2023-03-14T11:45:30;12.70;99.90
10662;DHT22;5379;51.034;7.006;2023-03-14T11:48:20;12.40;99.90
10662;DHT22;5379;51.034;7.006;2023-03-14T11:50:52;12.50;99.90
10662;DHT22;5379;51.034;7.006;2023-03-14T11:53:23;12.30;99.90
10662;DHT22;5379;51.034;7.006;2023-03-14T11:55:54;12.20;99.90
10662;DHT22;5379;51.034;7.006;2023-03-14T11:58:25;12.20;99.90
10662;DHT22;5379;51.034;7.006;2023-03-14T12:00:54;12.10;99.90
10662;DHT22;5379;51.034;7.006;2023-03-14T12:03:26;12.20;99.90
10662;DHT22;5379;51.034;7.006;2023-03-14T12:06:05;12.00;99.90
10662;DHT22;5379;51.034;7.006;2023-03-14T12:08:43;11.60;99.90
10662;DHT22;5379;51.034;7.006;2023-03-14T12:11:17;11.30;99.90
10662;DHT22;5379;51.034;7.006;2023-03-14T12:13:47;11.20;99.90
10662;DHT22;5379;51.034;7.006;2023-03-14T12:16:46;11.10;99.90
10662;DHT22;5379;51.034;7.006;2023-03-14T12:19:26;10.60;99.90
10662;DHT22;5379;51.034;7.006;2023-03-14T12:21:56;11.10;99.90
10662;DHT22;5379;51.034;7.006;2023-03-14T12:24:27;11.30;99.90
10662;DHT22;5379;51.034;7.006;2023-03-14T12:26:59;11.10;99.90
10662;DHT22;5379;51.034;7.006;2023-03-14T12:29:29;11.20;99.90
10662;DHT22;5379;51.034;7.006;2023-03-14T12:32:21;11.30;99.90
10662;DHT22;5379;51.034;7.006;2023-03-14T12:34:50;11.20;99.90
10662;DHT22;5379;51.034;7.006;2023-03-14T12:37:23;11.10;99.90
10662;DHT22;5379;51.034;7.006;2023-03-14T12:40:03;11.10;99.90
10662;DHT22;5379;51.034;7.006;2023-03-14T12:42:45;11.30;99.90
10662;DHT22;5379;51.034;7.006;2023-03-14T12:45:27;11.20;99.90
10662;DHT22;5379;51.034;7.006;2023-03-14T12:48:04;11.20;99.90
10662;DHT22;5379;51.034;7.006;2023-03-14T12:50:36;11.10;99.90
10662;DHT22;5379;51.034;7.006;2023-03-14T12:56:28;11.10;99.90
10662;DHT22;5379;51.034;7.006;2023-03-14T12:59:21;10.90;99.90
10662;DHT22;5379;51.034;7.006;2023-03-14T13:01:55;10.90;99.90
10662;DHT22;5379;51.034;7.006;2023-03-14T13:04:28;11.10;99.90
10662;DHT22;5379;51.034;7.006;2023-03-14T13:06:57;11.20;99.90
10662;DHT22;5379;51.034;7.006;2023-03-14T13:10:03;11.30;99.90
10662;DHT22;5379;51.034;7.006;2023-03-14T13:12:38;11.50;99.90
10662;DHT22;5379;51.034;7.006;2023-03-14T13:18:36;11.50;99.90
10662;DHT22;5379;51.034;7.006;2023-03-14T13:21:06;9.60;99.90
10662;DHT22;5379;51.034;7.006;2023-03-14T13:23:39;11.00;99.90
10662;DHT22;5379;51.034;7.006;2023-03-14T13:26:13;10.70;99.90
10662;DHT22;5379;51.034;7.006;2023-03-14T13:28:41;11.30;99.90
10662;DHT22;5379;51.034;7.006;2023-03-14T13:31:20;11.30;99.90
10662;DHT22;5379;51.034;7.006;2023-03-14T13:40:51;10.20;99.90
10662;DHT22;5379;51.034;7.006;2023-03-14T13:43:21;9.40;99.90
10662;DHT22;5379;51.034;7.006;2023-03-14T15:38:56;12.00;99.90
10662;DHT22;5379;51.034;7.006;2023-03-14T15:41:24;12.00;99.90
10662;DHT22;5379;51.034;7.006;2023-03-14T15:43:52;12.10;99.90
10662;DHT22;5379;51.034;7.006;2023-03-14T15:46:20;12.00;99.90
10662;DHT22;5379;51.034;7.006;2023-03-14T15:48:47;12.00;99.90
10662;DHT22;5379;51.034;7.006;2023-03-14T15:51:15;11.80;99.90
10662;DHT22;5379;51.034;7.006;2023-03-14T15:53:42;11.70;99.90
10662;DHT22;5379;51.034;7.006;2023-03-14T15:56:13;11.80;99.90
10662;DHT22;5379;51.034;7.006;2023-03-14T15:58:40;11.80;99.90
10662;DHT22;5379;51.034;7.006;2023-03-14T16:01:09;11.50;97.10
10662;DHT22;5379;51.034;7.006;2023-03-14T16:03:36;11.70;96.50
10662;DHT22;5379;51.034;7.006;2023-03-14T16:06:04;11.90;96.00
10662;DHT22;5379;51.034;7.006;2023-03-14T16:08:31;11.80;95.30
10662;DHT22;5379;51.034;7.006;2023-03-14T16:10:59;11.90;94.90
10662;DHT22;5379;51.034;7.006;2023-03-14T16:13:28;11.90;94.70
10662;DHT22;5379;51.034;7.006;2023-03-14T16:15:56;11.70;93.60
10662;DHT22;5379;51.034;7.006;2023-03-14T16:18:24;11.80;93.60
10662;DHT22;5379;51.034;7.006;2023-03-14T16:20:52;11.70;93.40
10662;DHT22;5379;51.034;7.006;2023-03-14T16:23:19;11.60;93.20
10662;DHT22;5379;51.034;7.006;2023-03-14T16:25:46;11.60;93.20
10662;DHT22;5379;51.034;7.006;2023-03-14T16:28:13;11.50;92.70
10662;DHT22;5379;51.034;7.006;2023-03-14T16:30:42;11.50;92.90
10662;DHT22;5379;51.034;7.006;2023-03-14T16:33:09;11.60;93.90
10662;DHT22;5379;51.034;7.006;2023-03-14T16:35:36;11.70;93.70
10662;DHT22;5379;51.034;7.006;2023-03-14T16:38:04;11.50;92.80
10662;DHT22;5379;51.034;7.006;2023-03-14T16:40:31;11.60;93.40
10662;DHT22;5379;51.034;7.006;2023-03-14T16:42:59;11.60;93.10
10662;DHT22;5379;51.034;7.006;2023-03-14T16:45:28;11.50;92.60
10662;DHT22;5379;51.034;7.006;2023-03-14T16:47:57;11.50;92.90
10662;DHT22;5379;51.034;7.006;2023-03-14T16:50:24;11.50;93.00
10662;DHT22;5379;51.034;7.006;2023-03-14T16:52:51;11.80;92.90
10662;DHT22;5379;51.034;7.006;2023-03-14T16:55:20;11.40;92.30
10662;DHT22;5379;51.034;7.006;2023-03-14T16:57:47;11.10;92.20
10662;DHT22;5379;51.034;7.006;2023-03-14T17:00:14;11.00;92.80
10662;DHT22;5379;51.034;7.006;2023-03-14T17:02:41;11.00;92.00
10662;DHT22;5379;51.034;7.006;2023-03-14T17:05:10;10.70;91.80
10662;DHT22;5379;51.034;7.006;2023-03-14T17:07:37;10.70;91.80
10662;DHT22;5379;51.034;7.006;2023-03-14T17:10:04;10.90;92.50
10662;DHT22;5379;51.034;7.006;2023-03-14T17:12:31;10.70;91.90
10662;DHT22;5379;51.034;7.006;2023-03-14T17:14:59;10.70;92.00
10662;DHT22;5379;51.034;7.006;2023-03-14T17:17:26;10.60;90.90
10662;DHT22;5379;51.034;7.006;2023-03-14T17:19:53;10.70;91.10
10662;DHT22;5379;51.034;7.006;2023-03-14T17:22:21;10.80;90.20
10662;DHT22;5379;51.034;7.006;2023-03-14T17:24:48;10.80;90.40
10662;DHT22;5379;51.034;7.006;2023-03-14T17:27:15;10.80;90.80
10662;DHT22;5379;51.034;7.006;2023-03-14T17:29:45;10.80;91.10
10662;DHT22;5379;51.034;7.006;2023-03-14T17:32:12;10.90;91.20
10662;DHT22;5379;51.034;7.006;2023-03-14T17:34:39;10.90;91.20
10662;DHT22;5379;51.034;7.006;2023-03-14T17:37:14;10.70;90.80
10662;DHT22;5379;51.034;7.006;2023-03-14T17:39:47;10.70;91.10
10662;DHT22;5379;51.034;7.006;2023-03-14T17:42:14;10.70;91.20
10662;DHT22;5379;51.034;7.006;2023-03-14T17:45:14;10.80;91.40
10662;DHT22;5379;51.034;7.006;2023-03-14T17:47:41;12.30;92.00
10662;DHT22;5379;51.034;7.006;2023-03-14T17:50:09;10.80;91.20
10662;DHT22;5379;51.034;7.006;2023-03-14T17:52:36;10.90;90.70
10662;DHT22;5379;51.034;7.006;2023-03-14T17:55:06;10.80;90.80
10662;DHT22;5379;51.034;7.006;2023-03-14T17:57:35;10.90;90.90
10662;DHT22;5379;51.034;7.006;2023-03-14T18:00:05;10.80;91.40
10662;DHT22;5379;51.034;7.006;2023-03-14T18:02:32;10.70;91.30
10662;DHT22;5379;51.034;7.006;2023-03-14T18:05:00;11.00;91.20
10662;DHT22;5379;51.034;7.006;2023-03-14T18:07:27;10.90;91.20
10662;DHT22;5379;51.034;7.006;2023-03-14T18:09:54;10.80;91.60
10662;DHT22;5379;51.034;7.006;2023-03-14T18:12:22;10.90;91.30
10662;DHT22;5379;51.034;7.006;2023-03-14T18:14:49;10.80;91.10
10662;DHT22;5379;51.034;7.006;2023-03-14T18:17:16;10.70;91.40
10662;DHT22;5379;51.034;7.006;2023-03-14T18:19:43;10.70;91.30
10662;DHT22;5379;51.034;7.006;2023-03-14T18:22:10;10.70;91.90
10662;DHT22;5379;51.034;7.006;2023-03-14T18:24:37;10.70;91.90
10662;DHT22;5379;51.034;7.006;2023-03-14T18:27:05;10.70;92.10
10662;DHT22;5379;51.034;7.006;2023-03-14T18:29:33;10.50;92.30
10662;DHT22;5379;51.034;7.006;2023-03-14T18:32:01;10.30;91.50
10662;DHT22;5379;51.034;7.006;2023-03-14T18:34:28;10.30;91.50
10662;DHT22;5379;51.034;7.006;2023-03-14T18:37:03;10.30;90.90
10662;DHT22;5379;51.034;7.006;2023-03-14T18:39:34;10.50;91.10
10662;DHT22;5379;51.034;7.006;2023-03-14T18:42:02;10.50;91.40
10662;DHT22;5379;51.034;7.006;2023-03-14T18:44:28;10.60;92.20
10662;DHT22;5379;51.034;7.006;2023-03-14T18:47:42;10.70;92.50
10662;DHT22;5379;51.034;7.006;2023-03-14T18:50:10;12.00;92.80
10662;DHT22;5379;51.034;7.006;2023-03-14T18:52:37;10.70;92.40
10662;DHT22;5379;51.034;7.006;2023-03-14T18:55:05;10.90;92.00
10662;DHT22;5379;51.034;7.006;2023-03-14T18:57:32;11.00;91.20
10662;DHT22;5379;51.034;7.006;2023-03-14T18:59:59;10.70;90.90
10662;DHT22;5379;51.034;7.006;2023-03-14T19:02:28;10.50;91.60
10662;DHT22;5379;51.034;7.006;2023-03-14T19:04:55;10.40;90.90
10662;DHT22;5379;51.034;7.006;2023-03-14T19:07:22;10.40;91.00
10662;DHT22;5379;51.034;7.006;2023-03-14T19:09:49;10.30;91.20
10662;DHT22;5379;51.034;7.006;2023-03-14T19:12:16;10.30;91.10
10662;DHT22;5379;51.034;7.006;2023-03-14T19:14:43;10.30;91.60
10662;DHT22;5379;51.034;7.006;2023-03-14T19:17:10;10.40;91.60
10662;DHT22;5379;51.034;7.006;2023-03-14T19:19:38;10.40;91.70
10662;DHT22;5379;51.034;7.006;2023-03-14T19:22:05;10.20;91.90
10662;DHT22;5379;51.034;7.006;2023-03-14T19:24:32;10.00;92.50
10662;DHT22;5379;51.034;7.006;2023-03-14T19:27:00;10.00;92.50
10662;DHT22;5379;51.034;7.006;2023-03-14T19:29:26;10.00;92.20
10662;DHT22;5379;51.034;7.006;2023-03-14T19:31:53;10.20;92.70
10662;DHT22;5379;51.034;7.006;2023-03-14T19:34:20;10.20;92.10
10662;DHT22;5379;51.034;7.006;2023-03-14T19:36:49;10.10;92.10
10662;DHT22;5379;51.034;7.006;2023-03-14T19:39:18;10.10;92.10
10662;DHT22;5379;51.034;7.006;2023-03-14T19:41:45;10.20;92.60
10662;DHT22;5379;51.034;7.006;2023-03-14T19:44:11;8.80;92.10
10662;DHT22;5379;51.034;7.006;2023-03-14T19:46:38;10.00;92.10
10662;DHT22;5379;51.034;7.006;2023-03-14T19:49:06;10.00;92.50
10662;DHT22;5379;51.034;7.006;2023-03-14T19:51:32;9.80;92.90
10662;DHT22;5379;51.034;7.006;2023-03-14T19:54:01;9.80;93.10
10662;DHT22;5379;51.034;7.006;2023-03-14T19:56:29;9.70;92.90
10662;DHT22;5379;51.034;7.006;2023-03-14T19:58:56;9.70;93.10
10662;DHT22;5379;51.034;7.006;2023-03-14T20:01:23;9.80;93.00
10662;DHT22;5379;51.034;7.006;2023-03-14T20:03:51;9.70;93.20
10662;DHT22;5379;51.034;7.006;2023-03-14T20:06:18;9.70;93.30
10662;DHT22;5379;51.034;7.006;2023-03-14T20:08:46;9.60;92.90
10662;DHT22;5379;51.034;7.006;2023-03-14T20:11:14;9.60;93.10
10662;DHT22;5379;51.034;7.006;2023-03-14T20:13:41;9.60;93.00
10662;DHT22;5379;51.034;7.006;2023-03-14T20:16:09;9.50;93.30
10662;DHT22;5379;51.034;7.006;2023-03-14T20:18:36;9.50;93.10
10662;DHT22;5379;51.034;7.006;2023-03-14T20:21:05;9.40;93.00
10662;DHT22;5379;51.034;7.006;2023-03-14T20:23:32;9.50;93.30
10662;DHT22;5379;51.034;7.006;2023-03-14T20:25:59;9.50;92.90
10662;DHT22;5379;51.034;7.006;2023-03-14T20:28:28;9.40;93.10
10662;DHT22;5379;51.034;7.006;2023-03-14T20:30:56;9.40;93.20
10662;DHT22;5379;51.034;7.006;2023-03-14T20:33:23;9.40;93.10
10662;DHT22;5379;51.034;7.006;2023-03-14T20:35:53;9.40;93.00
10662;DHT22;5379;51.034;7.006;2023-03-14T20:38:21;9.40;92.80
10662;DHT22;5379;51.034;7.006;2023-03-14T20:40:51;9.30;92.80
10662;DHT22;5379;51.034;7.006;2023-03-14T20:43:18;9.20;93.30
10662;DHT22;5379;51.034;7.006;2023-03-14T20:45:52;9.10;93.10
10662;DHT22;5379;51.034;7.006;2023-03-14T20:48:19;9.20;93.00
10662;DHT22;5379;51.034;7.006;2023-03-14T20:50:46;9.10;93.00
10662;DHT22;5379;51.034;7.006;2023-03-14T20:53:13;9.20;93.00
10662;DHT22;5379;51.034;7.006;2023-03-14T20:55:41;9.00;93.40
10662;DHT22;5379;51.034;7.006;2023-03-14T20:58:08;9.00;93.20
10662;DHT22;5379;51.034;7.006;2023-03-14T21:00:37;9.00;93.60
10662;DHT22;5379;51.034;7.006;2023-03-14T21:03:06;9.10;93.60
10662;DHT22;5379;51.034;7.006;2023-03-14T21:05:35;9.20;93.50
10662;DHT22;5379;51.034;7.006;2023-03-14T21:08:02;9.10;93.90
10662;DHT22;5379;51.034;7.006;2023-03-14T21:10:29;9.10;94.00
10662;DHT22;5379;51.034;7.006;2023-03-14T21:12:56;9.10;94.20
10662;DHT22;5379;51.034;7.006;2023-03-14T21:15:23;9.00;94.20
10662;DHT22;5379;51.034;7.006;2023-03-14T21:17:50;9.00;94.20
10662;DHT22;5379;51.034;7.006;2023-03-14T21:20:20;8.90;94.30
10662;DHT22;5379;51.034;7.006;2023-03-14T21:22:50;9.00;94.20
10662;DHT22;5379;51.034;7.006;2023-03-14T21:25:18;8.90;94.00
10662;DHT22;5379;51.034;7.006;2023-03-14T21:27:45;8.90;94.20
10662;DHT22;5379;51.034;7.006;2023-03-14T21:30:12;8.90;93.80
10662;DHT22;5379;51.034;7.006;2023-03-14T21:32:39;9.00;94.10
10662;DHT22;5379;51.034;7.006;2023-03-14T21:35:07;8.90;93.60
10662;DHT22;5379;51.034;7.006;2023-03-14T21:37:35;8.90;93.80
10662;DHT22;5379;51.034;7.006;2023-03-14T21:40:02;8.90;93.60
10662;DHT22;5379;51.034;7.006;2023-03-14T21:42:32;8.80;93.60
10662;DHT22;5379;51.034;7.006;2023-03-14T21:44:59;8.70;94.00
10662;DHT22;5379;51.034;7.006;2023-03-14T21:47:27;8.60;94.20
10662;DHT22;5379;51.034;7.006;2023-03-14T21:49:54;8.50;94.30
10662;DHT22;5379;51.034;7.006;2023-03-14T21:52:21;8.50;94.50
10662;DHT22;5379;51.034;7.006;2023-03-14T21:54:50;8.50;94.50
10662;DHT22;5379;51.034;7.006;2023-03-14T21:59:45;8.50;93.90
10662;DHT22;5379;51.034;7.006;2023-03-14T22:02:13;8.50;94.30
10662;DHT22;5379;51.034;7.006;2023-03-14T22:04:41;8.40;94.40
10662;DHT22;5379;51.034;7.006;2023-03-14T22:07:10;8.50;94.50
10662;DHT22;5379;51.034;7.006;2023-03-14T22:09:38;8.50;94.40
10662;DHT22;5379;51.034;7.006;2023-03-14T22:12:07;8.50;94.40
10662;DHT22;5379;51.034;7.006;2023-03-14T22:19:31;8.60;94.10
10662;DHT22;5379;51.034;7.006;2023-03-14T22:21:58;8.60;94.60
10662;DHT22;5379;51.034;7.006;2023-03-14T22:24:25;8.70;94.60
10662;DHT22;5379;51.034;7.006;2023-03-14T22:26:52;8.60;94.10
10662;DHT22;5379;51.034;7.006;2023-03-14T22:29:21;8.60;94.40
10662;DHT22;5379;51.034;7.006;2023-03-14T22:31:48;8.60;94.50
10662;DHT22;5379;51.034;7.006;2023-03-14T22:34:15;9.70;95.40
10662;DHT22;5379;51.034;7.006;2023-03-14T22:36:42;8.50;94.70
10662;DHT22;5379;51.034;7.006;2023-03-14T22:39:09;8.50;95.00
10662;DHT22;5379;51.034;7.006;2023-03-14T22:41:36;8.40;95.20
10662;DHT22;5379;51.034;7.006;2023-03-14T22:44:03;8.50;95.50
10662;DHT22;5379;51.034;7.006;2023-03-14T22:46:32;8.60;94.80
10662;DHT22;5379;51.034;7.006;2023-03-14T22:48:59;8.60;95.30